St. Maarten, Netherlands Antilles
Current Conditions -  °F | °C
As of 6:00 AM on Thursday 23 Oct 2014 (Local Time) from TNCM Reporting Station
Scattered Clouds Scattered Clouds  
Wind Chill: 82°   Ceiling: Unl
Heat Index: 89°   Visibility: 6mi
Dew Point: 75°   Wind: 7mph
Humidity: 79%   Direction: 100°E
Pressure: 29.91"   Gusts: NA
Location:  18.05°N, 63.12°W
Report Text: TNCM 231000Z 10006KT 060V130 9999 SCT018TCU 28/24 Q1013 A2992 NOSIG RMK TCU TO NNW
Loading
Personal Weather Stations






























Interactive Weather Map
Tropical Storm Tracking
New forecast layout! Learn more

10-Day Weather Forecast

Advertisements
Track Severe Weather on mobile